sensor_id;sensor_type;location;lat;lon;timestamp;P1;durP1;ratioP1;P2;durP2;ratioP2
5867;SDS011;2960;49.142;7.768;2022-09-12T00:01:30;11.37;;;4.67;;
5867;SDS011;2960;49.142;7.768;2022-09-12T00:03:59;12.07;;;4.83;;
5867;SDS011;2960;49.142;7.768;2022-09-12T00:06:28;12.70;;;4.73;;
5867;SDS011;2960;49.142;7.768;2022-09-12T00:08:59;12.70;;;5.07;;
5867;SDS011;2960;49.142;7.768;2022-09-12T00:11:30;12.10;;;4.80;;
5867;SDS011;2960;49.142;7.768;2022-09-12T00:14:00;12.00;;;5.13;;
5867;SDS011;2960;49.142;7.768;2022-09-12T00:16:29;11.40;;;4.50;;
5867;SDS011;2960;49.142;7.768;2022-09-12T00:18:59;11.20;;;4.67;;
5867;SDS011;2960;49.142;7.768;2022-09-12T00:21:26;11.80;;;4.90;;
5867;SDS011;2960;49.142;7.768;2022-09-12T00:23:54;11.80;;;5.03;;
5867;SDS011;2960;49.142;7.768;2022-09-12T00:26:22;12.80;;;4.73;;
5867;SDS011;2960;49.142;7.768;2022-09-12T00:28:49;11.97;;;4.67;;
5867;SDS011;2960;49.142;7.768;2022-09-12T00:31:17;12.93;;;5.07;;
5867;SDS011;2960;49.142;7.768;2022-09-12T00:33:47;11.70;;;4.67;;
5867;SDS011;2960;49.142;7.768;2022-09-12T00:36:16;12.10;;;4.67;;
5867;SDS011;2960;49.142;7.768;2022-09-12T00:38:45;12.40;;;4.87;;
5867;SDS011;2960;49.142;7.768;2022-09-12T00:41:15;12.10;;;4.67;;
5867;SDS011;2960;49.142;7.768;2022-09-12T00:43:48;12.03;;;4.80;;
5867;SDS011;2960;49.142;7.768;2022-09-12T00:46:20;11.70;;;4.87;;
5867;SDS011;2960;49.142;7.768;2022-09-12T00:48:55;12.30;;;4.67;;
5867;SDS011;2960;49.142;7.768;2022-09-12T00:51:28;11.30;;;4.40;;
5867;SDS011;2960;49.142;7.768;2022-09-12T00:53:59;11.53;;;4.70;;
5867;SDS011;2960;49.142;7.768;2022-09-12T00:56:32;11.63;;;4.80;;
5867;SDS011;2960;49.142;7.768;2022-09-12T00:59:02;12.80;;;4.83;;
5867;SDS011;2960;49.142;7.768;2022-09-12T01:01:34;12.37;;;5.00;;
5867;SDS011;2960;49.142;7.768;2022-09-12T01:04:02;11.77;;;5.30;;
5867;SDS011;2960;49.142;7.768;2022-09-12T01:06:32;12.30;;;5.07;;
5867;SDS011;2960;49.142;7.768;2022-09-12T01:09:03;11.80;;;4.83;;
5867;SDS011;2960;49.142;7.768;2022-09-12T01:11:30;12.07;;;4.80;;
5867;SDS011;2960;49.142;7.768;2022-09-12T01:14:03;12.97;;;5.20;;
5867;SDS011;2960;49.142;7.768;2022-09-12T01:16:30;11.90;;;4.73;;
5867;SDS011;2960;49.142;7.768;2022-09-12T01:19:02;11.47;;;4.40;;
5867;SDS011;2960;49.142;7.768;2022-09-12T01:21:53;11.97;;;4.80;;
5867;SDS011;2960;49.142;7.768;2022-09-12T01:24:49;12.53;;;4.93;;
5867;SDS011;2960;49.142;7.768;2022-09-12T01:27:24;11.27;;;4.50;;
5867;SDS011;2960;49.142;7.768;2022-09-12T01:33:16;11.67;;;4.90;;
5867;SDS011;2960;49.142;7.768;2022-09-12T01:35:56;12.27;;;5.03;;
5867;SDS011;2960;49.142;7.768;2022-09-12T01:38:37;11.80;;;4.50;;
5867;SDS011;2960;49.142;7.768;2022-09-12T01:41:13;11.93;;;5.20;;
5867;SDS011;2960;49.142;7.768;2022-09-12T01:43:50;11.10;;;4.50;;
5867;SDS011;2960;49.142;7.768;2022-09-12T01:46:28;13.20;;;5.00;;
5867;SDS011;2960;49.142;7.768;2022-09-12T01:49:05;12.33;;;5.37;;
5867;SDS011;2960;49.142;7.768;2022-09-12T01:51:40;11.83;;;5.03;;
5867;SDS011;2960;49.142;7.768;2022-09-12T01:54:15;11.77;;;4.60;;
5867;SDS011;2960;49.142;7.768;2022-09-12T01:56:48;13.50;;;4.97;;
5867;SDS011;2960;49.142;7.768;2022-09-12T01:59:22;12.43;;;5.03;;
5867;SDS011;2960;49.142;7.768;2022-09-12T02:01:57;12.00;;;4.83;;
5867;SDS011;2960;49.142;7.768;2022-09-12T02:04:30;12.03;;;5.00;;
5867;SDS011;2960;49.142;7.768;2022-09-12T02:07:05;11.77;;;4.70;;
5867;SDS011;2960;49.142;7.768;2022-09-12T02:09:38;11.07;;;4.60;;
5867;SDS011;2960;49.142;7.768;2022-09-12T02:12:09;11.20;;;4.67;;
5867;SDS011;2960;49.142;7.768;2022-09-12T02:14:41;11.77;;;4.60;;
5867;SDS011;2960;49.142;7.768;2022-09-12T02:17:16;11.40;;;4.70;;
5867;SDS011;2960;49.142;7.768;2022-09-12T02:19:47;11.30;;;4.87;;
5867;SDS011;2960;49.142;7.768;2022-09-12T02:22:19;11.87;;;4.77;;
5867;SDS011;2960;49.142;7.768;2022-09-12T02:24:48;11.80;;;4.83;;
5867;SDS011;2960;49.142;7.768;2022-09-12T02:27:20;11.20;;;4.60;;
5867;SDS011;2960;49.142;7.768;2022-09-12T02:29:52;11.50;;;4.47;;
5867;SDS011;2960;49.142;7.768;2022-09-12T02:32:23;11.47;;;4.80;;
5867;SDS011;2960;49.142;7.768;2022-09-12T02:34:58;12.13;;;4.93;;
5867;SDS011;2960;49.142;7.768;2022-09-12T02:37:39;11.37;;;4.60;;
5867;SDS011;2960;49.142;7.768;2022-09-12T02:40:16;12.40;;;4.87;;
5867;SDS011;2960;49.142;7.768;2022-09-12T02:42:43;11.93;;;4.70;;
5867;SDS011;2960;49.142;7.768;2022-09-12T02:45:11;11.43;;;4.83;;
5867;SDS011;2960;49.142;7.768;2022-09-12T02:47:40;12.03;;;4.90;;
5867;SDS011;2960;49.142;7.768;2022-09-12T02:50:12;11.67;;;4.87;;
5867;SDS011;2960;49.142;7.768;2022-09-12T02:52:39;12.33;;;4.80;;
5867;SDS011;2960;49.142;7.768;2022-09-12T02:55:08;11.40;;;4.40;;
5867;SDS011;2960;49.142;7.768;2022-09-12T02:57:36;13.67;;;5.07;;
5867;SDS011;2960;49.142;7.768;2022-09-12T03:00:04;12.80;;;4.90;;
5867;SDS011;2960;49.142;7.768;2022-09-12T03:02:38;12.00;;;4.93;;
5867;SDS011;2960;49.142;7.768;2022-09-12T03:05:24;11.70;;;4.90;;
5867;SDS011;2960;49.142;7.768;2022-09-12T03:08:09;12.90;;;4.70;;
5867;SDS011;2960;49.142;7.768;2022-09-12T03:11:23;11.10;;;4.50;;
5867;SDS011;2960;49.142;7.768;2022-09-12T03:14:02;11.40;;;4.60;;
5867;SDS011;2960;49.142;7.768;2022-09-12T03:16:41;11.40;;;4.40;;
5867;SDS011;2960;49.142;7.768;2022-09-12T03:19:15;11.53;;;4.77;;
5867;SDS011;2960;49.142;7.768;2022-09-12T03:21:53;12.53;;;4.80;;
5867;SDS011;2960;49.142;7.768;2022-09-12T03:24:29;11.30;;;4.37;;
5867;SDS011;2960;49.142;7.768;2022-09-12T03:27:03;11.77;;;4.37;;
5867;SDS011;2960;49.142;7.768;2022-09-12T03:29:36;11.67;;;4.60;;
5867;SDS011;2960;49.142;7.768;2022-09-12T03:32:05;11.73;;;4.80;;
5867;SDS011;2960;49.142;7.768;2022-09-12T03:34:34;11.90;;;4.80;;
5867;SDS011;2960;49.142;7.768;2022-09-12T03:37:01;12.13;;;4.30;;
5867;SDS011;2960;49.142;7.768;2022-09-12T03:39:28;12.33;;;4.53;;
5867;SDS011;2960;49.142;7.768;2022-09-12T03:41:56;11.57;;;4.83;;
5867;SDS011;2960;49.142;7.768;2022-09-12T03:44:23;11.40;;;4.30;;
5867;SDS011;2960;49.142;7.768;2022-09-12T03:46:51;11.80;;;4.80;;
5867;SDS011;2960;49.142;7.768;2022-09-12T03:49:18;11.63;;;4.50;;
5867;SDS011;2960;49.142;7.768;2022-09-12T03:51:46;11.30;;;4.63;;
5867;SDS011;2960;49.142;7.768;2022-09-12T03:54:13;11.77;;;4.40;;
5867;SDS011;2960;49.142;7.768;2022-09-12T03:56:40;12.23;;;4.83;;
5867;SDS011;2960;49.142;7.768;2022-09-12T03:59:07;11.57;;;4.80;;
5867;SDS011;2960;49.142;7.768;2022-09-12T04:01:34;11.73;;;4.40;;
5867;SDS011;2960;49.142;7.768;2022-09-12T04:04:02;11.57;;;4.37;;
5867;SDS011;2960;49.142;7.768;2022-09-12T04:06:29;11.00;;;4.10;;
5867;SDS011;2960;49.142;7.768;2022-09-12T04:08:57;11.90;;;4.70;;
5867;SDS011;2960;49.142;7.768;2022-09-12T04:11:25;11.10;;;4.03;;
5867;SDS011;2960;49.142;7.768;2022-09-12T04:13:52;11.67;;;4.47;;
5867;SDS011;2960;49.142;7.768;2022-09-12T04:16:19;11.03;;;4.00;;
5867;SDS011;2960;49.142;7.768;2022-09-12T04:18:46;11.03;;;4.37;;
5867;SDS011;2960;49.142;7.768;2022-09-12T04:21:14;11.40;;;4.13;;
5867;SDS011;2960;49.142;7.768;2022-09-12T04:23:43;11.37;;;4.13;;
5867;SDS011;2960;49.142;7.768;2022-09-12T04:26:13;11.70;;;4.33;;
5867;SDS011;2960;49.142;7.768;2022-09-12T04:28:41;11.23;;;3.93;;
5867;SDS011;2960;49.142;7.768;2022-09-12T04:31:10;11.20;;;4.20;;
5867;SDS011;2960;49.142;7.768;2022-09-12T04:33:41;11.10;;;4.23;;
5867;SDS011;2960;49.142;7.768;2022-09-12T04:36:09;11.03;;;4.30;;
5867;SDS011;2960;49.142;7.768;2022-09-12T04:38:40;10.77;;;4.07;;
5867;SDS011;2960;49.142;7.768;2022-09-12T04:41:09;10.83;;;3.80;;
5867;SDS011;2960;49.142;7.768;2022-09-12T04:43:39;10.87;;;3.63;;
5867;SDS011;2960;49.142;7.768;2022-09-12T04:46:06;10.70;;;3.63;;
5867;SDS011;2960;49.142;7.768;2022-09-12T04:48:35;10.97;;;3.70;;
5867;SDS011;2960;49.142;7.768;2022-09-12T04:51:05;11.77;;;4.27;;
5867;SDS011;2960;49.142;7.768;2022-09-12T04:53:34;10.37;;;3.60;;
5867;SDS011;2960;49.142;7.768;2022-09-12T04:56:02;11.33;;;4.00;;
5867;SDS011;2960;49.142;7.768;2022-09-12T04:58:31;10.17;;;3.57;;
5867;SDS011;2960;49.142;7.768;2022-09-12T05:01:04;10.97;;;3.73;;
5867;SDS011;2960;49.142;7.768;2022-09-12T05:03:33;11.60;;;3.83;;
5867;SDS011;2960;49.142;7.768;2022-09-12T05:06:03;10.80;;;3.60;;
5867;SDS011;2960;49.142;7.768;2022-09-12T05:08:32;10.83;;;3.90;;
5867;SDS011;2960;49.142;7.768;2022-09-12T05:11:01;11.00;;;4.20;;
5867;SDS011;2960;49.142;7.768;2022-09-12T05:13:30;11.20;;;3.80;;
5867;SDS011;2960;49.142;7.768;2022-09-12T05:15:58;11.13;;;3.97;;
5867;SDS011;2960;49.142;7.768;2022-09-12T05:18:29;11.20;;;3.93;;
5867;SDS011;2960;49.142;7.768;2022-09-12T05:20:57;12.13;;;4.03;;
5867;SDS011;2960;49.142;7.768;2022-09-12T05:23:25;11.80;;;4.30;;
5867;SDS011;2960;49.142;7.768;2022-09-12T05:25:53;11.50;;;3.90;;
5867;SDS011;2960;49.142;7.768;2022-09-12T05:28:23;11.00;;;3.90;;
5867;SDS011;2960;49.142;7.768;2022-09-12T05:30:58;10.60;;;4.00;;
5867;SDS011;2960;49.142;7.768;2022-09-12T05:33:28;10.50;;;3.70;;
5867;SDS011;2960;49.142;7.768;2022-09-12T05:35:55;10.80;;;4.00;;
5867;SDS011;2960;49.142;7.768;2022-09-12T05:38:23;10.70;;;3.90;;
5867;SDS011;2960;49.142;7.768;2022-09-12T05:40:50;10.90;;;4.03;;
5867;SDS011;2960;49.142;7.768;2022-09-12T05:43:17;11.10;;;3.80;;
5867;SDS011;2960;49.142;7.768;2022-09-12T05:45:45;10.33;;;3.80;;
5867;SDS011;2960;49.142;7.768;2022-09-12T05:48:12;10.60;;;4.07;;
5867;SDS011;2960;49.142;7.768;2022-09-12T05:50:40;11.10;;;4.27;;
5867;SDS011;2960;49.142;7.768;2022-09-12T05:53:08;10.67;;;4.20;;
5867;SDS011;2960;49.142;7.768;2022-09-12T05:55:35;10.80;;;3.90;;
5867;SDS011;2960;49.142;7.768;2022-09-12T05:58:02;10.43;;;3.83;;
5867;SDS011;2960;49.142;7.768;2022-09-12T06:00:29;11.60;;;3.70;;
5867;SDS011;2960;49.142;7.768;2022-09-12T06:02:56;10.37;;;3.60;;
5867;SDS011;2960;49.142;7.768;2022-09-12T06:05:23;10.17;;;3.60;;
5867;SDS011;2960;49.142;7.768;2022-09-12T06:07:51;10.93;;;3.83;;
5867;SDS011;2960;49.142;7.768;2022-09-12T06:10:18;10.57;;;3.90;;
5867;SDS011;2960;49.142;7.768;2022-09-12T06:12:47;10.70;;;4.30;;
5867;SDS011;2960;49.142;7.768;2022-09-12T06:15:14;10.07;;;3.50;;
5867;SDS011;2960;49.142;7.768;2022-09-12T06:17:42;10.70;;;4.07;;
5867;SDS011;2960;49.142;7.768;2022-09-12T06:20:09;10.77;;;3.77;;
5867;SDS011;2960;49.142;7.768;2022-09-12T06:22:36;10.57;;;3.60;;
5867;SDS011;2960;49.142;7.768;2022-09-12T06:25:05;10.07;;;3.70;;
5867;SDS011;2960;49.142;7.768;2022-09-12T06:27:33;10.57;;;3.57;;
5867;SDS011;2960;49.142;7.768;2022-09-12T06:30:00;10.83;;;4.20;;
5867;SDS011;2960;49.142;7.768;2022-09-12T06:32:28;10.50;;;3.83;;
5867;SDS011;2960;49.142;7.768;2022-09-12T06:34:56;10.80;;;3.70;;
5867;SDS011;2960;49.142;7.768;2022-09-12T06:37:23;11.13;;;4.33;;
5867;SDS011;2960;49.142;7.768;2022-09-12T06:39:50;10.27;;;3.73;;
5867;SDS011;2960;49.142;7.768;2022-09-12T06:42:18;10.30;;;3.50;;
5867;SDS011;2960;49.142;7.768;2022-09-12T06:44:46;10.60;;;3.57;;
5867;SDS011;2960;49.142;7.768;2022-09-12T06:47:14;10.67;;;3.70;;
5867;SDS011;2960;49.142;7.768;2022-09-12T06:49:41;10.40;;;3.57;;
5867;SDS011;2960;49.142;7.768;2022-09-12T06:52:08;10.40;;;3.53;;
5867;SDS011;2960;49.142;7.768;2022-09-12T06:54:35;10.50;;;3.87;;
5867;SDS011;2960;49.142;7.768;2022-09-12T06:57:02;10.60;;;3.50;;
5867;SDS011;2960;49.142;7.768;2022-09-12T06:59:31;10.10;;;3.37;;
5867;SDS011;2960;49.142;7.768;2022-09-12T07:01:58;10.53;;;3.23;;
5867;SDS011;2960;49.142;7.768;2022-09-12T07:04:25;11.10;;;4.07;;
5867;SDS011;2960;49.142;7.768;2022-09-12T07:06:53;10.30;;;3.53;;
5867;SDS011;2960;49.142;7.768;2022-09-12T07:09:20;10.10;;;3.33;;
5867;SDS011;2960;49.142;7.768;2022-09-12T07:11:47;10.40;;;3.70;;
5867;SDS011;2960;49.142;7.768;2022-09-12T07:14:14;11.20;;;3.90;;
5867;SDS011;2960;49.142;7.768;2022-09-12T07:16:43;10.50;;;3.60;;
5867;SDS011;2960;49.142;7.768;2022-09-12T07:19:10;10.60;;;3.93;;
5867;SDS011;2960;49.142;7.768;2022-09-12T07:21:37;10.50;;;3.50;;
5867;SDS011;2960;49.142;7.768;2022-09-12T07:24:05;10.37;;;3.90;;
5867;SDS011;2960;49.142;7.768;2022-09-12T07:26:33;11.17;;;4.20;;
5867;SDS011;2960;49.142;7.768;2022-09-12T07:29:00;10.83;;;3.90;;
5867;SDS011;2960;49.142;7.768;2022-09-12T07:31:29;11.30;;;4.10;;
5867;SDS011;2960;49.142;7.768;2022-09-12T07:33:57;12.07;;;4.00;;
5867;SDS011;2960;49.142;7.768;2022-09-12T07:36:24;10.50;;;3.77;;
5867;SDS011;2960;49.142;7.768;2022-09-12T07:38:55;10.83;;;4.00;;
5867;SDS011;2960;49.142;7.768;2022-09-12T07:41:24;11.17;;;4.10;;
5867;SDS011;2960;49.142;7.768;2022-09-12T07:43:53;10.60;;;3.70;;
5867;SDS011;2960;49.142;7.768;2022-09-12T07:46:23;10.83;;;3.90;;
5867;SDS011;2960;49.142;7.768;2022-09-12T07:48:52;10.93;;;4.10;;
5867;SDS011;2960;49.142;7.768;2022-09-12T07:51:22;10.80;;;3.93;;
5867;SDS011;2960;49.142;7.768;2022-09-12T07:53:50;10.97;;;4.10;;
5867;SDS011;2960;49.142;7.768;2022-09-12T07:56:18;10.63;;;3.73;;
5867;SDS011;2960;49.142;7.768;2022-09-12T07:58:46;10.90;;;3.93;;
5867;SDS011;2960;49.142;7.768;2022-09-12T08:01:14;11.10;;;4.10;;
5867;SDS011;2960;49.142;7.768;2022-09-12T08:03:43;10.67;;;3.93;;
5867;SDS011;2960;49.142;7.768;2022-09-12T08:06:13;11.50;;;3.83;;
5867;SDS011;2960;49.142;7.768;2022-09-12T08:08:45;10.70;;;4.10;;
5867;SDS011;2960;49.142;7.768;2022-09-12T08:11:14;11.53;;;4.67;;
5867;SDS011;2960;49.142;7.768;2022-09-12T08:13:43;10.77;;;4.00;;
5867;SDS011;2960;49.142;7.768;2022-09-12T08:16:13;10.97;;;4.30;;
5867;SDS011;2960;49.142;7.768;2022-09-12T08:18:43;10.70;;;4.03;;
5867;SDS011;2960;49.142;7.768;2022-09-12T08:21:11;11.07;;;4.50;;
5867;SDS011;2960;49.142;7.768;2022-09-12T08:23:40;10.80;;;3.97;;
5867;SDS011;2960;49.142;7.768;2022-09-12T08:26:10;11.27;;;4.57;;
5867;SDS011;2960;49.142;7.768;2022-09-12T08:28:38;11.30;;;4.10;;
5867;SDS011;2960;49.142;7.768;2022-09-12T08:31:10;10.90;;;4.30;;
5867;SDS011;2960;49.142;7.768;2022-09-12T08:33:39;11.57;;;4.67;;
5867;SDS011;2960;49.142;7.768;2022-09-12T08:36:08;11.20;;;4.40;;
5867;SDS011;2960;49.142;7.768;2022-09-12T08:38:39;11.00;;;4.20;;
5867;SDS011;2960;49.142;7.768;2022-09-12T08:41:10;11.13;;;3.90;;
5867;SDS011;2960;49.142;7.768;2022-09-12T08:47:04;11.40;;;4.37;;
5867;SDS011;2960;49.142;7.768;2022-09-12T08:49:56;10.90;;;4.17;;
5867;SDS011;2960;49.142;7.768;2022-09-12T08:52:32;11.67;;;4.53;;
5867;SDS011;2960;49.142;7.768;2022-09-12T08:55:05;11.07;;;4.20;;
5867;SDS011;2960;49.142;7.768;2022-09-12T08:57:52;11.60;;;4.60;;
5867;SDS011;2960;49.142;7.768;2022-09-12T09:00:19;11.37;;;4.50;;
5867;SDS011;2960;49.142;7.768;2022-09-12T09:05:51;11.33;;;4.30;;
5867;SDS011;2960;49.142;7.768;2022-09-12T09:08:34;11.30;;;4.50;;
5867;SDS011;2960;49.142;7.768;2022-09-12T09:11:17;11.30;;;4.80;;
5867;SDS011;2960;49.142;7.768;2022-09-12T09:14:08;11.00;;;4.43;;
5867;SDS011;2960;49.142;7.768;2022-09-12T09:17:07;12.33;;;4.83;;
5867;SDS011;2960;49.142;7.768;2022-09-12T09:19:36;11.30;;;4.57;;
5867;SDS011;2960;49.142;7.768;2022-09-12T09:22:11;11.60;;;4.80;;
5867;SDS011;2960;49.142;7.768;2022-09-12T09:24:43;11.90;;;4.83;;
5867;SDS011;2960;49.142;7.768;2022-09-12T09:27:18;11.50;;;4.90;;
5867;SDS011;2960;49.142;7.768;2022-09-12T09:29:57;11.70;;;4.80;;
5867;SDS011;2960;49.142;7.768;2022-09-12T09:32:26;11.03;;;4.20;;
5867;SDS011;2960;49.142;7.768;2022-09-12T09:34:56;11.50;;;4.80;;
5867;SDS011;2960;49.142;7.768;2022-09-12T09:37:24;11.50;;;5.00;;
5867;SDS011;2960;49.142;7.768;2022-09-12T09:40:02;11.60;;;4.70;;
5867;SDS011;2960;49.142;7.768;2022-09-12T09:42:42;11.63;;;5.00;;
5867;SDS011;2960;49.142;7.768;2022-09-12T09:45:20;11.37;;;5.10;;
5867;SDS011;2960;49.142;7.768;2022-09-12T09:47:53;11.27;;;4.60;;
5867;SDS011;2960;49.142;7.768;2022-09-12T09:50:25;11.17;;;4.50;;
5867;SDS011;2960;49.142;7.768;2022-09-12T09:52:53;11.90;;;5.00;;
5867;SDS011;2960;49.142;7.768;2022-09-12T09:55:24;11.20;;;4.43;;
5867;SDS011;2960;49.142;7.768;2022-09-12T09:57:56;12.30;;;5.30;;
5867;SDS011;2960;49.142;7.768;2022-09-12T10:00:25;12.50;;;5.00;;
5867;SDS011;2960;49.142;7.768;2022-09-12T10:05:52;11.60;;;4.70;;
5867;SDS011;2960;49.142;7.768;2022-09-12T10:08:22;11.40;;;4.63;;
5867;SDS011;2960;49.142;7.768;2022-09-12T10:10:52;11.17;;;4.50;;
5867;SDS011;2960;49.142;7.768;2022-09-12T10:13:23;11.57;;;5.03;;
5867;SDS011;2960;49.142;7.768;2022-09-12T10:15:57;11.53;;;4.83;;
5867;SDS011;2960;49.142;7.768;2022-09-12T10:18:38;11.10;;;4.33;;
5867;SDS011;2960;49.142;7.768;2022-09-12T10:21:13;11.63;;;4.60;;
5867;SDS011;2960;49.142;7.768;2022-09-12T10:23:45;11.63;;;4.60;;
5867;SDS011;2960;49.142;7.768;2022-09-12T10:26:14;11.63;;;4.57;;
5867;SDS011;2960;49.142;7.768;2022-09-12T10:28:45;11.20;;;4.70;;
5867;SDS011;2960;49.142;7.768;2022-09-12T10:31:23;11.80;;;5.00;;
5867;SDS011;2960;49.142;7.768;2022-09-12T10:33:54;12.00;;;4.67;;
5867;SDS011;2960;49.142;7.768;2022-09-12T10:36:23;11.20;;;4.23;;
5867;SDS011;2960;49.142;7.768;2022-09-12T10:38:52;11.57;;;4.70;;
5867;SDS011;2960;49.142;7.768;2022-09-12T10:41:22;12.10;;;4.50;;
5867;SDS011;2960;49.142;7.768;2022-09-12T10:43:50;12.80;;;4.37;;
5867;SDS011;2960;49.142;7.768;2022-09-12T10:46:27;11.30;;;4.70;;
5867;SDS011;2960;49.142;7.768;2022-09-12T10:49:12;11.47;;;4.97;;
5867;SDS011;2960;49.142;7.768;2022-09-12T10:51:52;11.30;;;4.40;;
5867;SDS011;2960;49.142;7.768;2022-09-12T10:54:24;11.00;;;4.30;;
5867;SDS011;2960;49.142;7.768;2022-09-12T10:57:10;12.83;;;5.00;;
5867;SDS011;2960;49.142;7.768;2022-09-12T11:00:06;11.63;;;5.03;;
5867;SDS011;2960;49.142;7.768;2022-09-12T11:02:49;11.20;;;4.60;;
5867;SDS011;2960;49.142;7.768;2022-09-12T11:05:29;11.43;;;4.20;;
5867;SDS011;2960;49.142;7.768;2022-09-12T11:08:18;10.93;;;3.93;;
5867;SDS011;2960;49.142;7.768;2022-09-12T11:11:06;11.80;;;4.50;;
5867;SDS011;2960;49.142;7.768;2022-09-12T11:13:52;10.80;;;4.10;;
5867;SDS011;2960;49.142;7.768;2022-09-12T11:16:37;10.60;;;3.97;;
5867;SDS011;2960;49.142;7.768;2022-09-12T11:19:35;10.97;;;4.20;;
5867;SDS011;2960;49.142;7.768;2022-09-12T11:22:24;10.70;;;3.80;;
5867;SDS011;2960;49.142;7.768;2022-09-12T11:25:18;10.70;;;4.00;;
5867;SDS011;2960;49.142;7.768;2022-09-12T11:27:58;10.97;;;4.13;;
5867;SDS011;2960;49.142;7.768;2022-09-12T11:30:48;10.80;;;4.20;;
5867;SDS011;2960;49.142;7.768;2022-09-12T11:33:35;12.53;;;5.00;;
5867;SDS011;2960;49.142;7.768;2022-09-12T11:36:12;11.20;;;4.23;;
5867;SDS011;2960;49.142;7.768;2022-09-12T11:38:56;11.23;;;4.17;;
5867;SDS011;2960;49.142;7.768;2022-09-12T11:41:38;10.57;;;3.80;;
5867;SDS011;2960;49.142;7.768;2022-09-12T11:44:12;11.30;;;4.57;;
5867;SDS011;2960;49.142;7.768;2022-09-12T11:46:43;11.70;;;4.23;;
5867;SDS011;2960;49.142;7.768;2022-09-12T11:49:19;10.77;;;4.50;;
5867;SDS011;2960;49.142;7.768;2022-09-12T11:51:56;11.00;;;4.33;;
5867;SDS011;2960;49.142;7.768;2022-09-12T11:54:31;11.23;;;4.67;;
5867;SDS011;2960;49.142;7.768;2022-09-12T11:57:06;11.20;;;4.20;;
5867;SDS011;2960;49.142;7.768;2022-09-12T11:59:42;11.17;;;4.43;;
5867;SDS011;2960;49.142;7.768;2022-09-12T12:02:16;11.00;;;4.20;;
5867;SDS011;2960;49.142;7.768;2022-09-12T12:05:01;10.83;;;4.40;;
5867;SDS011;2960;49.142;7.768;2022-09-12T12:07:45;10.70;;;4.10;;
5867;SDS011;2960;49.142;7.768;2022-09-12T12:10:26;11.30;;;4.20;;
5867;SDS011;2960;49.142;7.768;2022-09-12T12:13:01;11.10;;;4.40;;
5867;SDS011;2960;49.142;7.768;2022-09-12T12:15:32;11.13;;;4.40;;
5867;SDS011;2960;49.142;7.768;2022-09-12T12:18:02;11.00;;;4.47;;
5867;SDS011;2960;49.142;7.768;2022-09-12T12:20:33;10.67;;;4.23;;
5867;SDS011;2960;49.142;7.768;2022-09-12T12:23:02;11.37;;;4.27;;
5867;SDS011;2960;49.142;7.768;2022-09-12T12:25:37;11.20;;;4.13;;
5867;SDS011;2960;49.142;7.768;2022-09-12T12:28:08;10.83;;;4.40;;
5867;SDS011;2960;49.142;7.768;2022-09-12T12:48:45;11.43;;;4.70;;
5867;SDS011;2960;49.142;7.768;2022-09-12T12:51:32;12.17;;;4.77;;
5867;SDS011;2960;49.142;7.768;2022-09-12T12:57:31;11.13;;;4.70;;
5867;SDS011;2960;49.142;7.768;2022-09-12T13:00:26;10.70;;;4.47;;
5867;SDS011;2960;49.142;7.768;2022-09-12T13:02:58;11.30;;;4.43;;
5867;SDS011;2960;49.142;7.768;2022-09-12T13:05:29;11.27;;;4.47;;
5867;SDS011;2960;49.142;7.768;2022-09-12T13:08:06;11.10;;;4.53;;
5867;SDS011;2960;49.142;7.768;2022-09-12T13:10:36;11.10;;;4.90;;
5867;SDS011;2960;49.142;7.768;2022-09-12T13:13:05;11.30;;;4.90;;
5867;SDS011;2960;49.142;7.768;2022-09-12T13:15:46;10.77;;;4.40;;
5867;SDS011;2960;49.142;7.768;2022-09-12T13:18:18;11.33;;;4.60;;
5867;SDS011;2960;49.142;7.768;2022-09-12T13:20:53;11.00;;;4.50;;
5867;SDS011;2960;49.142;7.768;2022-09-12T13:23:29;10.93;;;4.70;;
5867;SDS011;2960;49.142;7.768;2022-09-12T13:25:58;10.90;;;4.60;;
5867;SDS011;2960;49.142;7.768;2022-09-12T13:28:28;11.13;;;4.80;;
5867;SDS011;2960;49.142;7.768;2022-09-12T13:30:58;11.20;;;4.93;;
5867;SDS011;2960;49.142;7.768;2022-09-12T13:33:30;11.53;;;4.87;;
5867;SDS011;2960;49.142;7.768;2022-09-12T13:39:13;11.30;;;4.83;;
5867;SDS011;2960;49.142;7.768;2022-09-12T13:41:49;10.70;;;4.30;;
5867;SDS011;2960;49.142;7.768;2022-09-12T13:44:59;11.03;;;4.60;;
5867;SDS011;2960;49.142;7.768;2022-09-12T13:47:31;10.87;;;4.60;;
5867;SDS011;2960;49.142;7.768;2022-09-12T13:50:02;11.83;;;4.30;;
5867;SDS011;2960;49.142;7.768;2022-09-12T13:52:34;11.03;;;4.37;;
5867;SDS011;2960;49.142;7.768;2022-09-12T13:55:04;10.40;;;4.10;;
5867;SDS011;2960;49.142;7.768;2022-09-12T13:57:38;10.90;;;4.50;;
5867;SDS011;2960;49.142;7.768;2022-09-12T14:00:11;10.53;;;4.17;;
5867;SDS011;2960;49.142;7.768;2022-09-12T14:02:44;10.80;;;4.10;;
5867;SDS011;2960;49.142;7.768;2022-09-12T14:05:35;10.87;;;4.53;;
5867;SDS011;2960;49.142;7.768;2022-09-12T14:08:05;10.60;;;4.03;;
5867;SDS011;2960;49.142;7.768;2022-09-12T14:10:35;10.83;;;4.57;;
5867;SDS011;2960;49.142;7.768;2022-09-12T14:13:08;11.10;;;4.60;;
5867;SDS011;2960;49.142;7.768;2022-09-12T14:15:42;10.50;;;4.00;;
5867;SDS011;2960;49.142;7.768;2022-09-12T14:18:20;11.03;;;4.30;;
5867;SDS011;2960;49.142;7.768;2022-09-12T14:20:50;10.80;;;4.40;;
5867;SDS011;2960;49.142;7.768;2022-09-12T14:23:24;10.60;;;4.00;;
5867;SDS011;2960;49.142;7.768;2022-09-12T14:25:53;10.60;;;3.90;;
5867;SDS011;2960;49.142;7.768;2022-09-12T14:28:22;10.50;;;3.90;;
5867;SDS011;2960;49.142;7.768;2022-09-12T14:30:58;10.47;;;4.10;;
5867;SDS011;2960;49.142;7.768;2022-09-12T14:33:30;10.37;;;3.80;;
5867;SDS011;2960;49.142;7.768;2022-09-12T14:36:06;10.47;;;4.33;;
5867;SDS011;2960;49.142;7.768;2022-09-12T14:38:39;10.50;;;3.97;;
5867;SDS011;2960;49.142;7.768;2022-09-12T14:41:08;10.90;;;4.20;;
5867;SDS011;2960;49.142;7.768;2022-09-12T14:43:37;10.60;;;4.00;;
5867;SDS011;2960;49.142;7.768;2022-09-12T14:46:16;10.77;;;4.00;;
5867;SDS011;2960;49.142;7.768;2022-09-12T14:48:47;10.57;;;4.17;;
5867;SDS011;2960;49.142;7.768;2022-09-12T14:51:18;10.83;;;4.00;;
5867;SDS011;2960;49.142;7.768;2022-09-12T14:53:51;10.90;;;4.10;;
5867;SDS011;2960;49.142;7.768;2022-09-12T14:56:19;10.77;;;4.40;;
5867;SDS011;2960;49.142;7.768;2022-09-12T14:58:47;10.40;;;4.00;;
5867;SDS011;2960;49.142;7.768;2022-09-12T15:01:21;10.73;;;4.00;;
5867;SDS011;2960;49.142;7.768;2022-09-12T15:03:51;10.67;;;4.17;;
5867;SDS011;2960;49.142;7.768;2022-09-12T15:06:21;10.80;;;4.37;;
5867;SDS011;2960;49.142;7.768;2022-09-12T15:08:52;10.57;;;4.30;;
5867;SDS011;2960;49.142;7.768;2022-09-12T15:11:22;10.63;;;4.17;;
5867;SDS011;2960;49.142;7.768;2022-09-12T15:13:50;10.50;;;3.87;;
5867;SDS011;2960;49.142;7.768;2022-09-12T15:16:17;11.40;;;4.50;;
5867;SDS011;2960;49.142;7.768;2022-09-12T15:18:46;11.40;;;4.50;;
5867;SDS011;2960;49.142;7.768;2022-09-12T15:21:15;10.67;;;4.10;;
5867;SDS011;2960;49.142;7.768;2022-09-12T15:23:45;10.90;;;4.30;;
5867;SDS011;2960;49.142;7.768;2022-09-12T15:26:14;10.90;;;4.63;;
5867;SDS011;2960;49.142;7.768;2022-09-12T15:28:43;10.90;;;4.40;;
5867;SDS011;2960;49.142;7.768;2022-09-12T15:31:12;11.20;;;4.60;;
5867;SDS011;2960;49.142;7.768;2022-09-12T15:33:49;10.80;;;4.30;;
5867;SDS011;2960;49.142;7.768;2022-09-12T15:36:17;10.63;;;4.40;;
5867;SDS011;2960;49.142;7.768;2022-09-12T15:38:47;10.90;;;4.20;;
5867;SDS011;2960;49.142;7.768;2022-09-12T15:41:15;10.83;;;4.57;;
5867;SDS011;2960;49.142;7.768;2022-09-12T15:43:45;11.30;;;4.23;;
5867;SDS011;2960;49.142;7.768;2022-09-12T15:46:14;10.67;;;4.30;;
5867;SDS011;2960;49.142;7.768;2022-09-12T15:48:43;11.20;;;4.70;;
5867;SDS011;2960;49.142;7.768;2022-09-12T15:51:12;10.80;;;4.40;;
5867;SDS011;2960;49.142;7.768;2022-09-12T15:53:41;10.90;;;4.73;;
5867;SDS011;2960;49.142;7.768;2022-09-12T15:56:09;11.23;;;5.00;;
5867;SDS011;2960;49.142;7.768;2022-09-12T15:58:36;11.33;;;5.10;;
5867;SDS011;2960;49.142;7.768;2022-09-12T16:01:03;10.80;;;4.37;;
5867;SDS011;2960;49.142;7.768;2022-09-12T16:03:30;11.00;;;4.60;;
5867;SDS011;2960;49.142;7.768;2022-09-12T16:05:58;10.90;;;4.43;;
5867;SDS011;2960;49.142;7.768;2022-09-12T16:08:29;11.30;;;4.90;;